sensor_id;sensor_type;location;lat;lon;timestamp;P1;durP1;ratioP1;P2;durP2;ratioP2
67162;SDS011;54092;53.088;8.850;2023-05-25T00:00:26;20.88;;;7.63;;
67162;SDS011;54092;53.088;8.850;2023-05-25T00:02:52;13.68;;;6.75;;
67162;SDS011;54092;53.088;8.850;2023-05-25T00:05:18;21.05;;;8.10;;
67162;SDS011;54092;53.088;8.850;2023-05-25T00:07:45;16.13;;;7.32;;
67162;SDS011;54092;53.088;8.850;2023-05-25T00:10:10;16.98;;;6.53;;
67162;SDS011;54092;53.088;8.850;2023-05-25T00:12:36;19.25;;;7.22;;
67162;SDS011;54092;53.088;8.850;2023-05-25T00:15:02;20.02;;;7.47;;
67162;SDS011;54092;53.088;8.850;2023-05-25T00:17:30;14.30;;;6.60;;
67162;SDS011;54092;53.088;8.850;2023-05-25T00:19:57;14.25;;;5.63;;
67162;SDS011;54092;53.088;8.850;2023-05-25T00:22:32;17.85;;;6.10;;
67162;SDS011;54092;53.088;8.850;2023-05-25T00:24:58;12.65;;;5.82;;
67162;SDS011;54092;53.088;8.850;2023-05-25T00:27:24;11.88;;;5.88;;
67162;SDS011;54092;53.088;8.850;2023-05-25T00:29:50;12.30;;;5.40;;
67162;SDS011;54092;53.088;8.850;2023-05-25T00:32:15;12.15;;;5.22;;
67162;SDS011;54092;53.088;8.850;2023-05-25T00:34:41;13.57;;;5.30;;
67162;SDS011;54092;53.088;8.850;2023-05-25T00:37:06;14.07;;;6.32;;
67162;SDS011;54092;53.088;8.850;2023-05-25T00:39:32;13.75;;;5.22;;
67162;SDS011;54092;53.088;8.850;2023-05-25T00:41:57;15.25;;;5.07;;
67162;SDS011;54092;53.088;8.850;2023-05-25T00:44:23;10.70;;;4.85;;
67162;SDS011;54092;53.088;8.850;2023-05-25T00:46:50;11.32;;;4.78;;
67162;SDS011;54092;53.088;8.850;2023-05-25T00:49:17;10.07;;;4.88;;
67162;SDS011;54092;53.088;8.850;2023-05-25T00:51:43;13.88;;;5.85;;
67162;SDS011;54092;53.088;8.850;2023-05-25T00:54:11;12.82;;;4.60;;
67162;SDS011;54092;53.088;8.850;2023-05-25T00:56:41;13.23;;;5.72;;
67162;SDS011;54092;53.088;8.850;2023-05-25T00:59:10;14.20;;;5.20;;
67162;SDS011;54092;53.088;8.850;2023-05-25T01:01:40;11.55;;;5.13;;
67162;SDS011;54092;53.088;8.850;2023-05-25T01:04:08;11.35;;;4.78;;
67162;SDS011;54092;53.088;8.850;2023-05-25T01:06:39;12.50;;;5.40;;
67162;SDS011;54092;53.088;8.850;2023-05-25T01:09:08;17.50;;;5.13;;
67162;SDS011;54092;53.088;8.850;2023-05-25T01:11:36;11.75;;;5.00;;
67162;SDS011;54092;53.088;8.850;2023-05-25T01:14:04;13.73;;;5.13;;
67162;SDS011;54092;53.088;8.850;2023-05-25T01:16:30;14.52;;;5.75;;
67162;SDS011;54092;53.088;8.850;2023-05-25T01:18:56;13.73;;;4.60;;
67162;SDS011;54092;53.088;8.850;2023-05-25T01:21:24;15.38;;;5.68;;
67162;SDS011;54092;53.088;8.850;2023-05-25T01:27:02;15.18;;;5.45;;
67162;SDS011;54092;53.088;8.850;2023-05-25T01:29:32;13.70;;;5.30;;
67162;SDS011;54092;53.088;8.850;2023-05-25T01:31:58;10.98;;;5.38;;
67162;SDS011;54092;53.088;8.850;2023-05-25T01:34:26;12.98;;;5.38;;
67162;SDS011;54092;53.088;8.850;2023-05-25T01:36:53;12.63;;;5.20;;
67162;SDS011;54092;53.088;8.850;2023-05-25T01:39:21;12.75;;;4.95;;
67162;SDS011;54092;53.088;8.850;2023-05-25T01:41:46;21.92;;;6.20;;
67162;SDS011;54092;53.088;8.850;2023-05-25T01:44:12;15.55;;;5.40;;
67162;SDS011;54092;53.088;8.850;2023-05-25T01:46:39;14.75;;;5.90;;
67162;SDS011;54092;53.088;8.850;2023-05-25T01:51:59;13.50;;;5.32;;
67162;SDS011;54092;53.088;8.850;2023-05-25T01:54:37;15.35;;;5.82;;
67162;SDS011;54092;53.088;8.850;2023-05-25T01:57:09;16.48;;;5.97;;
67162;SDS011;54092;53.088;8.850;2023-05-25T01:59:39;17.02;;;6.22;;
67162;SDS011;54092;53.088;8.850;2023-05-25T02:02:07;10.63;;;5.07;;
67162;SDS011;54092;53.088;8.850;2023-05-25T02:04:34;13.77;;;5.68;;
67162;SDS011;54092;53.088;8.850;2023-05-25T02:07:02;15.65;;;5.53;;
67162;SDS011;54092;53.088;8.850;2023-05-25T02:09:28;15.60;;;5.80;;
67162;SDS011;54092;53.088;8.850;2023-05-25T02:11:54;11.63;;;5.20;;
67162;SDS011;54092;53.088;8.850;2023-05-25T02:14:19;19.95;;;5.85;;
67162;SDS011;54092;53.088;8.850;2023-05-25T02:16:45;14.82;;;5.72;;
67162;SDS011;54092;53.088;8.850;2023-05-25T02:19:11;15.52;;;5.13;;
67162;SDS011;54092;53.088;8.850;2023-05-25T02:21:38;13.85;;;4.95;;
67162;SDS011;54092;53.088;8.850;2023-05-25T02:24:07;15.73;;;5.87;;
67162;SDS011;54092;53.088;8.850;2023-05-25T02:26:34;16.02;;;5.43;;
67162;SDS011;54092;53.088;8.850;2023-05-25T02:29:03;15.00;;;5.30;;
67162;SDS011;54092;53.088;8.850;2023-05-25T02:31:29;17.35;;;5.63;;
67162;SDS011;54092;53.088;8.850;2023-05-25T02:33:55;18.95;;;5.57;;
67162;SDS011;54092;53.088;8.850;2023-05-25T02:36:20;20.30;;;5.53;;
67162;SDS011;54092;53.088;8.850;2023-05-25T02:38:46;13.65;;;5.80;;
67162;SDS011;54092;53.088;8.850;2023-05-25T02:41:14;15.65;;;6.18;;
67162;SDS011;54092;53.088;8.850;2023-05-25T02:43:40;12.23;;;5.85;;
67162;SDS011;54092;53.088;8.850;2023-05-25T02:46:05;12.13;;;5.47;;
67162;SDS011;54092;53.088;8.850;2023-05-25T02:48:31;13.48;;;6.32;;
67162;SDS011;54092;53.088;8.850;2023-05-25T02:50:56;14.25;;;6.53;;
67162;SDS011;54092;53.088;8.850;2023-05-25T02:53:22;16.17;;;6.28;;
67162;SDS011;54092;53.088;8.850;2023-05-25T02:55:47;14.35;;;6.63;;
67162;SDS011;54092;53.088;8.850;2023-05-25T02:58:13;12.38;;;6.40;;
67162;SDS011;54092;53.088;8.850;2023-05-25T03:00:38;16.02;;;6.78;;
67162;SDS011;54092;53.088;8.850;2023-05-25T03:03:06;17.52;;;7.10;;
67162;SDS011;54092;53.088;8.850;2023-05-25T03:05:32;15.98;;;6.85;;
67162;SDS011;54092;53.088;8.850;2023-05-25T03:07:59;15.63;;;7.20;;
67162;SDS011;54092;53.088;8.850;2023-05-25T03:10:25;14.07;;;6.47;;
67162;SDS011;54092;53.088;8.850;2023-05-25T03:12:50;17.05;;;7.30;;
67162;SDS011;54092;53.088;8.850;2023-05-25T03:15:16;23.20;;;8.43;;
67162;SDS011;54092;53.088;8.850;2023-05-25T03:17:41;20.75;;;7.82;;
67162;SDS011;54092;53.088;8.850;2023-05-25T03:20:07;16.42;;;8.32;;
67162;SDS011;54092;53.088;8.850;2023-05-25T03:22:34;17.45;;;8.23;;
67162;SDS011;54092;53.088;8.850;2023-05-25T03:25:00;19.25;;;8.68;;
67162;SDS011;54092;53.088;8.850;2023-05-25T03:27:25;26.80;;;8.57;;
67162;SDS011;54092;53.088;8.850;2023-05-25T03:29:51;21.30;;;9.25;;
67162;SDS011;54092;53.088;8.850;2023-05-25T03:32:16;24.50;;;8.75;;
67162;SDS011;54092;53.088;8.850;2023-05-25T03:34:42;22.40;;;9.02;;
67162;SDS011;54092;53.088;8.850;2023-05-25T03:37:08;28.73;;;9.05;;
67162;SDS011;54092;53.088;8.850;2023-05-25T03:39:34;20.13;;;8.15;;
67162;SDS011;54092;53.088;8.850;2023-05-25T03:42:00;22.45;;;9.40;;
67162;SDS011;54092;53.088;8.850;2023-05-25T03:44:26;26.48;;;8.75;;
67162;SDS011;54092;53.088;8.850;2023-05-25T03:46:52;22.90;;;9.50;;
67162;SDS011;54092;53.088;8.850;2023-05-25T03:49:17;21.35;;;9.30;;
67162;SDS011;54092;53.088;8.850;2023-05-25T03:51:43;25.15;;;8.85;;
67162;SDS011;54092;53.088;8.850;2023-05-25T03:54:08;24.75;;;9.73;;
67162;SDS011;54092;53.088;8.850;2023-05-25T03:56:34;19.20;;;8.73;;
67162;SDS011;54092;53.088;8.850;2023-05-25T03:59:00;20.75;;;9.65;;
67162;SDS011;54092;53.088;8.850;2023-05-25T04:01:25;20.77;;;9.18;;
67162;SDS011;54092;53.088;8.850;2023-05-25T04:03:53;18.38;;;8.70;;
67162;SDS011;54092;53.088;8.850;2023-05-25T04:06:19;23.88;;;9.23;;
67162;SDS011;54092;53.088;8.850;2023-05-25T04:08:45;20.00;;;9.07;;
67162;SDS011;54092;53.088;8.850;2023-05-25T04:11:11;22.65;;;8.88;;
67162;SDS011;54092;53.088;8.850;2023-05-25T04:13:37;17.98;;;8.98;;
67162;SDS011;54092;53.088;8.850;2023-05-25T04:16:04;19.42;;;9.20;;
67162;SDS011;54092;53.088;8.850;2023-05-25T04:18:30;23.05;;;9.15;;
67162;SDS011;54092;53.088;8.850;2023-05-25T04:20:56;25.80;;;9.10;;
67162;SDS011;54092;53.088;8.850;2023-05-25T04:23:22;23.85;;;9.98;;
67162;SDS011;54092;53.088;8.850;2023-05-25T04:25:47;26.73;;;10.27;;
67162;SDS011;54092;53.088;8.850;2023-05-25T04:28:15;22.83;;;10.13;;
67162;SDS011;54092;53.088;8.850;2023-05-25T04:30:41;20.60;;;8.75;;
67162;SDS011;54092;53.088;8.850;2023-05-25T04:33:08;19.15;;;8.63;;
67162;SDS011;54092;53.088;8.850;2023-05-25T04:35:35;25.83;;;9.35;;
67162;SDS011;54092;53.088;8.850;2023-05-25T04:38:01;20.20;;;9.30;;
67162;SDS011;54092;53.088;8.850;2023-05-25T04:40:27;22.42;;;8.77;;
67162;SDS011;54092;53.088;8.850;2023-05-25T04:42:52;28.95;;;9.10;;
67162;SDS011;54092;53.088;8.850;2023-05-25T04:45:19;22.73;;;8.27;;
67162;SDS011;54092;53.088;8.850;2023-05-25T04:47:45;18.90;;;7.97;;
67162;SDS011;54092;53.088;8.850;2023-05-25T04:50:11;24.02;;;9.30;;
67162;SDS011;54092;53.088;8.850;2023-05-25T04:52:36;19.83;;;8.55;;
67162;SDS011;54092;53.088;8.850;2023-05-25T04:55:02;20.92;;;8.23;;
67162;SDS011;54092;53.088;8.850;2023-05-25T04:57:28;20.58;;;8.90;;
67162;SDS011;54092;53.088;8.850;2023-05-25T04:59:55;20.45;;;9.50;;
67162;SDS011;54092;53.088;8.850;2023-05-25T05:02:21;17.05;;;8.02;;
67162;SDS011;54092;53.088;8.850;2023-05-25T05:04:46;22.40;;;8.68;;
67162;SDS011;54092;53.088;8.850;2023-05-25T05:07:12;18.58;;;7.82;;
67162;SDS011;54092;53.088;8.850;2023-05-25T05:09:38;20.40;;;8.02;;
67162;SDS011;54092;53.088;8.850;2023-05-25T05:12:03;24.17;;;9.63;;
67162;SDS011;54092;53.088;8.850;2023-05-25T05:14:29;20.67;;;6.85;;
67162;SDS011;54092;53.088;8.850;2023-05-25T05:16:54;17.38;;;6.80;;
67162;SDS011;54092;53.088;8.850;2023-05-25T05:19:20;12.55;;;6.40;;
67162;SDS011;54092;53.088;8.850;2023-05-25T05:21:46;11.60;;;5.65;;
67162;SDS011;54092;53.088;8.850;2023-05-25T05:24:12;12.02;;;5.35;;
67162;SDS011;54092;53.088;8.850;2023-05-25T05:26:38;12.70;;;5.40;;
67162;SDS011;54092;53.088;8.850;2023-05-25T05:29:03;13.07;;;5.63;;
67162;SDS011;54092;53.088;8.850;2023-05-25T05:31:29;13.38;;;5.80;;
67162;SDS011;54092;53.088;8.850;2023-05-25T05:33:55;16.02;;;6.75;;
67162;SDS011;54092;53.088;8.850;2023-05-25T05:36:21;16.63;;;6.50;;
67162;SDS011;54092;53.088;8.850;2023-05-25T05:38:46;12.52;;;5.63;;
67162;SDS011;54092;53.088;8.850;2023-05-25T05:41:12;23.88;;;7.00;;
67162;SDS011;54092;53.088;8.850;2023-05-25T05:43:38;15.95;;;6.38;;
67162;SDS011;54092;53.088;8.850;2023-05-25T05:46:06;12.00;;;6.18;;
67162;SDS011;54092;53.088;8.850;2023-05-25T05:48:32;13.00;;;6.10;;
67162;SDS011;54092;53.088;8.850;2023-05-25T05:50:57;14.68;;;6.03;;
67162;SDS011;54092;53.088;8.850;2023-05-25T05:53:23;12.50;;;6.20;;
67162;SDS011;54092;53.088;8.850;2023-05-25T05:55:48;13.63;;;6.57;;
67162;SDS011;54092;53.088;8.850;2023-05-25T05:58:17;12.30;;;5.95;;
67162;SDS011;54092;53.088;8.850;2023-05-25T06:00:43;13.95;;;5.85;;
67162;SDS011;54092;53.088;8.850;2023-05-25T06:03:08;12.18;;;6.38;;
67162;SDS011;54092;53.088;8.850;2023-05-25T06:05:34;13.68;;;5.95;;
67162;SDS011;54092;53.088;8.850;2023-05-25T06:07:59;17.00;;;5.72;;
67162;SDS011;54092;53.088;8.850;2023-05-25T06:10:25;12.40;;;5.50;;
67162;SDS011;54092;53.088;8.850;2023-05-25T06:12:51;14.18;;;5.72;;
67162;SDS011;54092;53.088;8.850;2023-05-25T06:15:16;14.63;;;5.78;;
67162;SDS011;54092;53.088;8.850;2023-05-25T06:17:42;14.60;;;5.60;;
67162;SDS011;54092;53.088;8.850;2023-05-25T06:20:07;13.85;;;5.43;;
67162;SDS011;54092;53.088;8.850;2023-05-25T06:22:33;9.55;;;4.97;;
67162;SDS011;54092;53.088;8.850;2023-05-25T06:24:59;14.02;;;5.43;;
67162;SDS011;54092;53.088;8.850;2023-05-25T06:27:25;10.75;;;5.32;;
67162;SDS011;54092;53.088;8.850;2023-05-25T06:29:50;13.20;;;5.32;;
67162;SDS011;54092;53.088;8.850;2023-05-25T06:32:16;13.10;;;5.47;;
67162;SDS011;54092;53.088;8.850;2023-05-25T06:34:41;12.50;;;4.68;;
67162;SDS011;54092;53.088;8.850;2023-05-25T06:37:07;15.27;;;4.90;;
67162;SDS011;54092;53.088;8.850;2023-05-25T06:39:33;11.32;;;4.57;;
67162;SDS011;54092;53.088;8.850;2023-05-25T06:41:58;12.70;;;4.72;;
67162;SDS011;54092;53.088;8.850;2023-05-25T06:44:24;8.98;;;3.85;;
67162;SDS011;54092;53.088;8.850;2023-05-25T06:46:49;12.80;;;4.78;;
67162;SDS011;54092;53.088;8.850;2023-05-25T06:49:15;13.15;;;4.60;;
67162;SDS011;54092;53.088;8.850;2023-05-25T06:51:40;10.15;;;3.97;;
67162;SDS011;54092;53.088;8.850;2023-05-25T06:54:06;13.10;;;4.90;;
67162;SDS011;54092;53.088;8.850;2023-05-25T06:56:32;11.60;;;4.05;;
67162;SDS011;54092;53.088;8.850;2023-05-25T06:58:58;10.23;;;3.95;;
67162;SDS011;54092;53.088;8.850;2023-05-25T07:01:23;14.27;;;3.90;;
67162;SDS011;54092;53.088;8.850;2023-05-25T07:03:49;15.10;;;4.28;;
67162;SDS011;54092;53.088;8.850;2023-05-25T07:06:15;11.15;;;4.20;;
67162;SDS011;54092;53.088;8.850;2023-05-25T07:08:41;15.65;;;4.70;;
67162;SDS011;54092;53.088;8.850;2023-05-25T07:11:06;10.73;;;3.45;;
67162;SDS011;54092;53.088;8.850;2023-05-25T07:13:36;11.70;;;4.30;;
67162;SDS011;54092;53.088;8.850;2023-05-25T07:16:01;9.77;;;4.03;;
67162;SDS011;54092;53.088;8.850;2023-05-25T07:18:27;9.80;;;4.45;;
67162;SDS011;54092;53.088;8.850;2023-05-25T07:20:52;14.85;;;4.53;;
67162;SDS011;54092;53.088;8.850;2023-05-25T07:23:18;10.43;;;4.40;;
67162;SDS011;54092;53.088;8.850;2023-05-25T07:25:43;12.15;;;4.13;;
67162;SDS011;54092;53.088;8.850;2023-05-25T07:28:09;12.10;;;3.70;;
67162;SDS011;54092;53.088;8.850;2023-05-25T07:30:35;14.82;;;4.10;;
67162;SDS011;54092;53.088;8.850;2023-05-25T07:33:00;14.18;;;4.38;;
67162;SDS011;54092;53.088;8.850;2023-05-25T07:35:26;11.77;;;4.32;;
67162;SDS011;54092;53.088;8.850;2023-05-25T07:37:55;9.60;;;3.75;;
67162;SDS011;54092;53.088;8.850;2023-05-25T07:40:24;11.25;;;3.70;;
67162;SDS011;54092;53.088;8.850;2023-05-25T07:42:50;15.20;;;4.05;;
67162;SDS011;54092;53.088;8.850;2023-05-25T07:45:15;12.27;;;4.00;;
67162;SDS011;54092;53.088;8.850;2023-05-25T07:47:41;12.15;;;3.58;;
67162;SDS011;54092;53.088;8.850;2023-05-25T07:50:07;11.32;;;3.78;;
67162;SDS011;54092;53.088;8.850;2023-05-25T07:52:32;13.38;;;4.07;;
67162;SDS011;54092;53.088;8.850;2023-05-25T07:54:58;10.93;;;4.32;;
67162;SDS011;54092;53.088;8.850;2023-05-25T07:57:24;10.35;;;3.42;;
67162;SDS011;54092;53.088;8.850;2023-05-25T07:59:49;9.50;;;3.70;;
67162;SDS011;54092;53.088;8.850;2023-05-25T08:02:15;8.98;;;3.58;;
67162;SDS011;54092;53.088;8.850;2023-05-25T08:04:41;9.93;;;3.50;;
67162;SDS011;54092;53.088;8.850;2023-05-25T08:07:06;11.65;;;4.13;;
67162;SDS011;54092;53.088;8.850;2023-05-25T08:09:31;14.60;;;5.03;;
67162;SDS011;54092;53.088;8.850;2023-05-25T08:11:57;13.63;;;4.30;;
67162;SDS011;54092;53.088;8.850;2023-05-25T08:14:23;12.73;;;4.15;;
67162;SDS011;54092;53.088;8.850;2023-05-25T08:16:49;18.38;;;4.55;;
67162;SDS011;54092;53.088;8.850;2023-05-25T08:19:15;9.23;;;3.70;;
67162;SDS011;54092;53.088;8.850;2023-05-25T08:21:41;11.73;;;4.00;;
67162;SDS011;54092;53.088;8.850;2023-05-25T08:24:06;12.10;;;4.07;;
67162;SDS011;54092;53.088;8.850;2023-05-25T08:26:32;14.63;;;3.97;;
67162;SDS011;54092;53.088;8.850;2023-05-25T08:29:00;12.52;;;4.95;;
67162;SDS011;54092;53.088;8.850;2023-05-25T08:31:32;13.63;;;4.22;;
67162;SDS011;54092;53.088;8.850;2023-05-25T08:33:58;9.02;;;3.90;;
67162;SDS011;54092;53.088;8.850;2023-05-25T08:36:24;12.20;;;3.95;;
67162;SDS011;54092;53.088;8.850;2023-05-25T08:38:51;10.77;;;3.85;;
67162;SDS011;54092;53.088;8.850;2023-05-25T08:41:16;14.10;;;4.10;;
67162;SDS011;54092;53.088;8.850;2023-05-25T08:43:43;13.13;;;3.92;;
67162;SDS011;54092;53.088;8.850;2023-05-25T08:46:10;11.25;;;4.50;;
67162;SDS011;54092;53.088;8.850;2023-05-25T08:48:36;11.65;;;4.18;;
67162;SDS011;54092;53.088;8.850;2023-05-25T08:51:08;15.35;;;4.45;;
67162;SDS011;54092;53.088;8.850;2023-05-25T08:53:36;14.07;;;4.25;;
67162;SDS011;54092;53.088;8.850;2023-05-25T08:56:21;17.63;;;4.57;;
67162;SDS011;54092;53.088;8.850;2023-05-25T08:59:01;15.98;;;4.35;;
67162;SDS011;54092;53.088;8.850;2023-05-25T09:01:34;12.05;;;4.13;;
67162;SDS011;54092;53.088;8.850;2023-05-25T09:04:03;14.25;;;3.72;;
67162;SDS011;54092;53.088;8.850;2023-05-25T09:06:29;15.85;;;4.38;;
67162;SDS011;54092;53.088;8.850;2023-05-25T09:08:55;9.98;;;3.45;;
67162;SDS011;54092;53.088;8.850;2023-05-25T09:11:20;14.20;;;3.60;;
67162;SDS011;54092;53.088;8.850;2023-05-25T09:13:46;13.82;;;3.58;;
67162;SDS011;54092;53.088;8.850;2023-05-25T09:16:12;16.50;;;4.40;;
67162;SDS011;54092;53.088;8.850;2023-05-25T09:18:38;13.27;;;4.18;;
67162;SDS011;54092;53.088;8.850;2023-05-25T09:21:04;13.55;;;4.25;;
67162;SDS011;54092;53.088;8.850;2023-05-25T09:23:30;14.55;;;3.83;;
67162;SDS011;54092;53.088;8.850;2023-05-25T09:25:58;13.65;;;5.47;;
67162;SDS011;54092;53.088;8.850;2023-05-25T09:28:28;13.00;;;4.25;;
67162;SDS011;54092;53.088;8.850;2023-05-25T09:30:54;16.52;;;4.75;;
67162;SDS011;54092;53.088;8.850;2023-05-25T09:33:20;17.35;;;4.50;;
67162;SDS011;54092;53.088;8.850;2023-05-25T09:35:46;16.88;;;4.47;;
67162;SDS011;54092;53.088;8.850;2023-05-25T09:38:13;19.88;;;5.00;;
67162;SDS011;54092;53.088;8.850;2023-05-25T09:40:43;19.55;;;4.45;;
67162;SDS011;54092;53.088;8.850;2023-05-25T09:43:10;19.67;;;4.38;;
67162;SDS011;54092;53.088;8.850;2023-05-25T09:45:36;17.35;;;4.53;;
67162;SDS011;54092;53.088;8.850;2023-05-25T09:48:03;15.68;;;4.38;;
67162;SDS011;54092;53.088;8.850;2023-05-25T09:50:31;16.52;;;4.38;;
67162;SDS011;54092;53.088;8.850;2023-05-25T09:52:59;21.15;;;4.60;;
67162;SDS011;54092;53.088;8.850;2023-05-25T09:55:26;13.63;;;3.80;;
67162;SDS011;54092;53.088;8.850;2023-05-25T09:57:53;14.57;;;4.10;;
67162;SDS011;54092;53.088;8.850;2023-05-25T10:00:20;14.57;;;4.53;;
67162;SDS011;54092;53.088;8.850;2023-05-25T10:02:47;16.45;;;4.90;;
67162;SDS011;54092;53.088;8.850;2023-05-25T10:05:12;13.60;;;3.88;;
67162;SDS011;54092;53.088;8.850;2023-05-25T10:07:38;12.27;;;3.70;;
67162;SDS011;54092;53.088;8.850;2023-05-25T10:10:05;14.20;;;4.18;;
67162;SDS011;54092;53.088;8.850;2023-05-25T10:12:32;14.05;;;3.85;;
67162;SDS011;54092;53.088;8.850;2023-05-25T10:14:58;15.82;;;4.60;;
67162;SDS011;54092;53.088;8.850;2023-05-25T10:17:27;20.55;;;4.80;;
67162;SDS011;54092;53.088;8.850;2023-05-25T10:19:56;14.13;;;4.20;;
67162;SDS011;54092;53.088;8.850;2023-05-25T10:22:35;16.77;;;4.30;;
67162;SDS011;54092;53.088;8.850;2023-05-25T10:25:09;17.23;;;4.25;;
67162;SDS011;54092;53.088;8.850;2023-05-25T10:27:38;14.48;;;4.20;;
67162;SDS011;54092;53.088;8.850;2023-05-25T10:30:05;17.95;;;4.45;;
67162;SDS011;54092;53.088;8.850;2023-05-25T10:32:32;15.73;;;4.28;;
67162;SDS011;54092;53.088;8.850;2023-05-25T10:35:00;13.63;;;3.60;;
67162;SDS011;54092;53.088;8.850;2023-05-25T10:37:27;17.42;;;4.57;;
67162;SDS011;54092;53.088;8.850;2023-05-25T10:39:54;14.57;;;4.30;;
67162;SDS011;54092;53.088;8.850;2023-05-25T10:42:22;21.48;;;5.22;;
67162;SDS011;54092;53.088;8.850;2023-05-25T10:44:47;16.25;;;4.30;;
67162;SDS011;54092;53.088;8.850;2023-05-25T10:47:14;15.23;;;4.45;;
67162;SDS011;54092;53.088;8.850;2023-05-25T10:49:50;17.55;;;3.85;;
67162;SDS011;54092;53.088;8.850;2023-05-25T10:52:17;16.80;;;5.25;;
67162;SDS011;54092;53.088;8.850;2023-05-25T10:54:45;15.60;;;4.25;;
67162;SDS011;54092;53.088;8.850;2023-05-25T10:57:12;21.20;;;4.63;;
67162;SDS011;54092;53.088;8.850;2023-05-25T10:59:47;12.00;;;3.90;;
67162;SDS011;54092;53.088;8.850;2023-05-25T11:02:19;15.40;;;4.50;;
67162;SDS011;54092;53.088;8.850;2023-05-25T11:04:48;16.15;;;4.38;;
67162;SDS011;54092;53.088;8.850;2023-05-25T11:07:15;16.80;;;4.80;;
67162;SDS011;54092;53.088;8.850;2023-05-25T11:09:43;17.70;;;4.57;;
67162;SDS011;54092;53.088;8.850;2023-05-25T11:12:20;16.77;;;4.22;;
67162;SDS011;54092;53.088;8.850;2023-05-25T11:17:42;20.35;;;4.60;;
67162;SDS011;54092;53.088;8.850;2023-05-25T11:20:19;17.75;;;4.20;;
67162;SDS011;54092;53.088;8.850;2023-05-25T11:22:47;14.95;;;4.75;;
67162;SDS011;54092;53.088;8.850;2023-05-25T11:28:04;16.63;;;4.68;;
67162;SDS011;54092;53.088;8.850;2023-05-25T11:30:30;17.85;;;3.92;;
67162;SDS011;54092;53.088;8.850;2023-05-25T11:33:00;16.38;;;4.00;;
67162;SDS011;54092;53.088;8.850;2023-05-25T11:35:29;13.77;;;4.55;;
67162;SDS011;54092;53.088;8.850;2023-05-25T11:37:57;18.95;;;4.97;;
67162;SDS011;54092;53.088;8.850;2023-05-25T11:40:24;17.02;;;4.63;;
67162;SDS011;54092;53.088;8.850;2023-05-25T11:45:21;12.95;;;4.13;;
67162;SDS011;54092;53.088;8.850;2023-05-25T11:47:47;17.35;;;4.63;;
67162;SDS011;54092;53.088;8.850;2023-05-25T11:50:15;17.85;;;4.78;;
67162;SDS011;54092;53.088;8.850;2023-05-25T11:52:41;18.52;;;4.78;;
67162;SDS011;54092;53.088;8.850;2023-05-25T11:55:13;16.45;;;4.50;;
67162;SDS011;54092;53.088;8.850;2023-05-25T11:57:39;14.98;;;4.63;;
67162;SDS011;54092;53.088;8.850;2023-05-25T12:00:05;13.50;;;4.60;;
67162;SDS011;54092;53.088;8.850;2023-05-25T12:02:38;19.23;;;4.55;;
67162;SDS011;54092;53.088;8.850;2023-05-25T12:05:05;15.30;;;5.45;;
67162;SDS011;54092;53.088;8.850;2023-05-25T12:07:31;13.82;;;4.18;;
67162;SDS011;54092;53.088;8.850;2023-05-25T12:10:07;17.33;;;4.38;;
67162;SDS011;54092;53.088;8.850;2023-05-25T12:12:57;13.98;;;4.50;;
67162;SDS011;54092;53.088;8.850;2023-05-25T12:15:25;12.48;;;3.90;;
67162;SDS011;54092;53.088;8.850;2023-05-25T12:17:52;18.35;;;4.80;;
67162;SDS011;54092;53.088;8.850;2023-05-25T12:20:18;19.00;;;4.72;;
67162;SDS011;54092;53.088;8.850;2023-05-25T12:22:44;20.15;;;5.07;;
67162;SDS011;54092;53.088;8.850;2023-05-25T12:25:10;19.15;;;6.07;;
67162;SDS011;54092;53.088;8.850;2023-05-25T12:27:37;18.27;;;5.57;;
67162;SDS011;54092;53.088;8.850;2023-05-25T12:30:07;15.13;;;4.18;;
67162;SDS011;54092;53.088;8.850;2023-05-25T12:32:33;12.57;;;4.15;;
67162;SDS011;54092;53.088;8.850;2023-05-25T12:35:06;16.63;;;4.40;;
67162;SDS011;54092;53.088;8.850;2023-05-25T12:37:33;13.73;;;4.75;;
67162;SDS011;54092;53.088;8.850;2023-05-25T12:39:59;14.05;;;4.60;;
67162;SDS011;54092;53.088;8.850;2023-05-25T12:42:24;18.27;;;4.78;;
67162;SDS011;54092;53.088;8.850;2023-05-25T12:44:53;16.40;;;5.32;;
67162;SDS011;54092;53.088;8.850;2023-05-25T12:47:22;19.98;;;4.22;;
67162;SDS011;54092;53.088;8.850;2023-05-25T12:49:48;21.27;;;4.38;;
67162;SDS011;54092;53.088;8.850;2023-05-25T12:57:51;21.38;;;5.30;;
67162;SDS011;54092;53.088;8.850;2023-05-25T13:00:21;17.25;;;4.60;;
67162;SDS011;54092;53.088;8.850;2023-05-25T13:02:49;20.90;;;5.18;;
67162;SDS011;54092;53.088;8.850;2023-05-25T13:05:18;19.67;;;4.45;;
67162;SDS011;54092;53.088;8.850;2023-05-25T13:07:44;16.70;;;4.72;;
67162;SDS011;54092;53.088;8.850;2023-05-25T13:10:13;21.92;;;5.10;;
67162;SDS011;54092;53.088;8.850;2023-05-25T13:12:41;22.75;;;5.22;;
67162;SDS011;54092;53.088;8.850;2023-05-25T13:15:10;18.55;;;4.60;;
67162;SDS011;54092;53.088;8.850;2023-05-25T13:17:36;22.50;;;5.47;;
67162;SDS011;54092;53.088;8.850;2023-05-25T13:20:01;18.17;;;4.90;;
67162;SDS011;54092;53.088;8.850;2023-05-25T13:22:28;20.55;;;5.30;;
67162;SDS011;54092;53.088;8.850;2023-05-25T13:24:54;20.33;;;4.90;;
67162;SDS011;54092;53.088;8.850;2023-05-25T13:27:20;21.67;;;5.60;;
67162;SDS011;54092;53.088;8.850;2023-05-25T13:29:45;20.23;;;4.57;;
67162;SDS011;54092;53.088;8.850;2023-05-25T13:32:10;19.42;;;4.65;;
67162;SDS011;54092;53.088;8.850;2023-05-25T13:34:36;24.50;;;5.32;;
67162;SDS011;54092;53.088;8.850;2023-05-25T13:37:02;19.65;;;4.70;;
67162;SDS011;54092;53.088;8.850;2023-05-25T13:39:27;22.20;;;5.20;;
67162;SDS011;54092;53.088;8.850;2023-05-25T13:41:53;15.15;;;4.53;;
67162;SDS011;54092;53.088;8.850;2023-05-25T13:44:18;21.27;;;4.80;;
67162;SDS011;54092;53.088;8.850;2023-05-25T13:46:44;23.23;;;4.90;;
67162;SDS011;54092;53.088;8.850;2023-05-25T13:49:10;18.38;;;5.07;;
67162;SDS011;54092;53.088;8.850;2023-05-25T13:51:36;23.17;;;4.82;;
67162;SDS011;54092;53.088;8.850;2023-05-25T13:54:02;17.88;;;5.47;;
67162;SDS011;54092;53.088;8.850;2023-05-25T13:56:28;18.48;;;4.72;;
67162;SDS011;54092;53.088;8.850;2023-05-25T13:58:54;15.27;;;5.22;;
67162;SDS011;54092;53.088;8.850;2023-05-25T14:01:19;17.42;;;4.57;;
67162;SDS011;54092;53.088;8.850;2023-05-25T14:03:45;21.48;;;5.63;;
67162;SDS011;54092;53.088;8.850;2023-05-25T14:06:10;19.13;;;5.10;;
67162;SDS011;54092;53.088;8.850;2023-05-25T14:08:36;19.58;;;5.07;;
67162;SDS011;54092;53.088;8.850;2023-05-25T14:11:02;24.10;;;5.88;;
67162;SDS011;54092;53.088;8.850;2023-05-25T14:13:27;18.77;;;5.07;;
67162;SDS011;54092;53.088;8.850;2023-05-25T14:15:53;17.15;;;4.40;;
67162;SDS011;54092;53.088;8.850;2023-05-25T14:18:18;29.73;;;5.07;;
67162;SDS011;54092;53.088;8.850;2023-05-25T14:20:44;25.88;;;5.63;;
67162;SDS011;54092;53.088;8.850;2023-05-25T14:23:09;17.42;;;4.55;;
67162;SDS011;54092;53.088;8.850;2023-05-25T14:25:35;23.65;;;4.88;;
67162;SDS011;54092;53.088;8.850;2023-05-25T14:28:01;24.55;;;4.28;;
67162;SDS011;54092;53.088;8.850;2023-05-25T14:30:26;27.75;;;4.97;;
67162;SDS011;54092;53.088;8.850;2023-05-25T14:32:52;20.83;;;4.93;;
67162;SDS011;54092;53.088;8.850;2023-05-25T14:35:17;23.65;;;4.78;;
67162;SDS011;54092;53.088;8.850;2023-05-25T14:37:43;20.92;;;4.53;;
67162;SDS011;54092;53.088;8.850;2023-05-25T14:40:08;21.38;;;4.75;;
67162;SDS011;54092;53.088;8.850;2023-05-25T14:42:34;18.45;;;4.90;;
67162;SDS011;54092;53.088;8.850;2023-05-25T14:45:00;19.25;;;4.63;;
67162;SDS011;54092;53.088;8.850;2023-05-25T14:47:26;19.55;;;4.88;;
67162;SDS011;54092;53.088;8.850;2023-05-25T14:49:51;17.77;;;4.38;;
67162;SDS011;54092;53.088;8.850;2023-05-25T14:52:17;20.17;;;4.25;;